sensor_id;sensor_type;location;lat;lon;timestamp;P1;durP1;ratioP1;P2;durP2;ratioP2
7495;SDS011;3789;47.064;15.482;2022-10-31T00:00:26;10.37;;;6.33;;
7495;SDS011;3789;47.064;15.482;2022-10-31T00:02:54;11.00;;;6.77;;
7495;SDS011;3789;47.064;15.482;2022-10-31T00:05:25;11.13;;;6.43;;
7495;SDS011;3789;47.064;15.482;2022-10-31T00:07:57;11.50;;;5.83;;
7495;SDS011;3789;47.064;15.482;2022-10-31T00:10:29;12.37;;;6.13;;
7495;SDS011;3789;47.064;15.482;2022-10-31T00:13:00;11.67;;;6.30;;
7495;SDS011;3789;47.064;15.482;2022-10-31T00:15:39;10.90;;;6.40;;
7495;SDS011;3789;47.064;15.482;2022-10-31T00:18:09;9.37;;;6.20;;
7495;SDS011;3789;47.064;15.482;2022-10-31T00:20:43;9.00;;;5.97;;
7495;SDS011;3789;47.064;15.482;2022-10-31T00:23:15;10.17;;;5.97;;
7495;SDS011;3789;47.064;15.482;2022-10-31T00:25:45;11.10;;;6.30;;
7495;SDS011;3789;47.064;15.482;2022-10-31T00:28:15;12.17;;;7.00;;
7495;SDS011;3789;47.064;15.482;2022-10-31T00:30:53;10.80;;;6.27;;
7495;SDS011;3789;47.064;15.482;2022-10-31T00:33:27;9.87;;;6.00;;
7495;SDS011;3789;47.064;15.482;2022-10-31T00:35:56;13.03;;;6.87;;
7495;SDS011;3789;47.064;15.482;2022-10-31T00:38:24;11.87;;;6.60;;
7495;SDS011;3789;47.064;15.482;2022-10-31T00:40:55;8.83;;;6.30;;
7495;SDS011;3789;47.064;15.482;2022-10-31T00:43:24;12.13;;;6.63;;
7495;SDS011;3789;47.064;15.482;2022-10-31T00:45:54;8.07;;;5.80;;
7495;SDS011;3789;47.064;15.482;2022-10-31T00:48:25;10.07;;;6.10;;
7495;SDS011;3789;47.064;15.482;2022-10-31T00:50:55;14.00;;;6.10;;
7495;SDS011;3789;47.064;15.482;2022-10-31T00:53:33;17.50;;;7.67;;
7495;SDS011;3789;47.064;15.482;2022-10-31T00:56:04;10.30;;;6.80;;
7495;SDS011;3789;47.064;15.482;2022-10-31T00:58:43;9.00;;;5.40;;
7495;SDS011;3789;47.064;15.482;2022-10-31T01:01:11;8.87;;;6.57;;
7495;SDS011;3789;47.064;15.482;2022-10-31T01:03:41;9.90;;;6.07;;
7495;SDS011;3789;47.064;15.482;2022-10-31T01:09:06;11.87;;;6.80;;
7495;SDS011;3789;47.064;15.482;2022-10-31T01:11:35;8.73;;;6.83;;
7495;SDS011;3789;47.064;15.482;2022-10-31T01:14:06;10.43;;;7.00;;
7495;SDS011;3789;47.064;15.482;2022-10-31T01:16:36;10.73;;;7.00;;
7495;SDS011;3789;47.064;15.482;2022-10-31T01:19:04;12.60;;;7.07;;
7495;SDS011;3789;47.064;15.482;2022-10-31T01:21:35;11.90;;;6.70;;
7495;SDS011;3789;47.064;15.482;2022-10-31T01:24:03;13.67;;;6.30;;
7495;SDS011;3789;47.064;15.482;2022-10-31T01:26:32;11.97;;;6.23;;
7495;SDS011;3789;47.064;15.482;2022-10-31T01:29:03;11.70;;;6.13;;
7495;SDS011;3789;47.064;15.482;2022-10-31T01:31:35;10.03;;;6.10;;
7495;SDS011;3789;47.064;15.482;2022-10-31T01:34:14;11.80;;;6.63;;
7495;SDS011;3789;47.064;15.482;2022-10-31T01:36:44;11.73;;;6.50;;
7495;SDS011;3789;47.064;15.482;2022-10-31T01:39:35;14.00;;;6.87;;
7495;SDS011;3789;47.064;15.482;2022-10-31T01:42:24;10.47;;;6.43;;
7495;SDS011;3789;47.064;15.482;2022-10-31T01:45:03;11.03;;;7.43;;
7495;SDS011;3789;47.064;15.482;2022-10-31T01:47:41;11.83;;;7.60;;
7495;SDS011;3789;47.064;15.482;2022-10-31T01:50:28;12.77;;;7.30;;
7495;SDS011;3789;47.064;15.482;2022-10-31T01:53:19;13.60;;;8.30;;
7495;SDS011;3789;47.064;15.482;2022-10-31T01:55:52;12.90;;;7.90;;
7495;SDS011;3789;47.064;15.482;2022-10-31T01:58:23;10.43;;;7.10;;
7495;SDS011;3789;47.064;15.482;2022-10-31T02:01:10;11.67;;;6.13;;
7495;SDS011;3789;47.064;15.482;2022-10-31T02:03:42;9.77;;;6.57;;
7495;SDS011;3789;47.064;15.482;2022-10-31T02:06:16;9.13;;;6.33;;
7495;SDS011;3789;47.064;15.482;2022-10-31T02:09:08;5.73;;;4.87;;
7495;SDS011;3789;47.064;15.482;2022-10-31T02:11:37;10.87;;;5.93;;
7495;SDS011;3789;47.064;15.482;2022-10-31T02:14:08;13.13;;;5.73;;
7495;SDS011;3789;47.064;15.482;2022-10-31T02:16:43;7.77;;;4.97;;
7495;SDS011;3789;47.064;15.482;2022-10-31T02:25:46;9.03;;;5.67;;
7495;SDS011;3789;47.064;15.482;2022-10-31T02:34:26;12.30;;;5.83;;
7495;SDS011;3789;47.064;15.482;2022-10-31T02:39:56;8.37;;;5.10;;
7495;SDS011;3789;47.064;15.482;2022-10-31T02:42:51;8.13;;;5.23;;
7495;SDS011;3789;47.064;15.482;2022-10-31T02:46:01;9.20;;;6.03;;
7495;SDS011;3789;47.064;15.482;2022-10-31T02:48:53;9.50;;;5.30;;
7495;SDS011;3789;47.064;15.482;2022-10-31T02:51:23;10.20;;;5.50;;
7495;SDS011;3789;47.064;15.482;2022-10-31T02:53:50;10.43;;;5.80;;
7495;SDS011;3789;47.064;15.482;2022-10-31T02:56:19;9.70;;;5.40;;
7495;SDS011;3789;47.064;15.482;2022-10-31T02:58:50;10.17;;;5.90;;
7495;SDS011;3789;47.064;15.482;2022-10-31T03:04:09;8.60;;;5.23;;
7495;SDS011;3789;47.064;15.482;2022-10-31T03:10:14;10.93;;;6.30;;
7495;SDS011;3789;47.064;15.482;2022-10-31T03:16:22;8.67;;;5.83;;
7495;SDS011;3789;47.064;15.482;2022-10-31T03:18:36;10.53;;;5.67;;
7495;SDS011;3789;47.064;15.482;2022-10-31T03:21:30;7.83;;;5.63;;
7495;SDS011;3789;47.064;15.482;2022-10-31T03:24:01;8.93;;;6.00;;
7495;SDS011;3789;47.064;15.482;2022-10-31T03:26:31;8.53;;;5.77;;
7495;SDS011;3789;47.064;15.482;2022-10-31T03:29:01;14.13;;;6.97;;
7495;SDS011;3789;47.064;15.482;2022-10-31T03:31:42;11.13;;;6.40;;
7495;SDS011;3789;47.064;15.482;2022-10-31T03:34:15;11.23;;;6.03;;
7495;SDS011;3789;47.064;15.482;2022-10-31T03:36:46;9.47;;;6.10;;
7495;SDS011;3789;47.064;15.482;2022-10-31T03:39:17;11.07;;;5.93;;
7495;SDS011;3789;47.064;15.482;2022-10-31T03:42:00;10.40;;;6.43;;
7495;SDS011;3789;47.064;15.482;2022-10-31T03:44:33;10.60;;;6.27;;
7495;SDS011;3789;47.064;15.482;2022-10-31T03:47:02;9.73;;;6.50;;
7495;SDS011;3789;47.064;15.482;2022-10-31T03:49:31;10.30;;;6.10;;
7495;SDS011;3789;47.064;15.482;2022-10-31T03:52:13;6.90;;;5.63;;
7495;SDS011;3789;47.064;15.482;2022-10-31T03:55:28;9.20;;;6.47;;
7495;SDS011;3789;47.064;15.482;2022-10-31T04:01:05;10.27;;;6.53;;
7495;SDS011;3789;47.064;15.482;2022-10-31T04:03:36;12.53;;;6.00;;
7495;SDS011;3789;47.064;15.482;2022-10-31T04:06:08;8.40;;;5.73;;
7495;SDS011;3789;47.064;15.482;2022-10-31T04:08:43;8.77;;;6.20;;
7495;SDS011;3789;47.064;15.482;2022-10-31T04:11:15;8.50;;;6.00;;
7495;SDS011;3789;47.064;15.482;2022-10-31T04:13:46;10.93;;;6.87;;
7495;SDS011;3789;47.064;15.482;2022-10-31T04:16:15;13.77;;;6.70;;
7495;SDS011;3789;47.064;15.482;2022-10-31T04:18:43;9.30;;;6.53;;
7495;SDS011;3789;47.064;15.482;2022-10-31T04:21:10;9.77;;;5.80;;
7495;SDS011;3789;47.064;15.482;2022-10-31T04:23:37;9.33;;;5.87;;
7495;SDS011;3789;47.064;15.482;2022-10-31T04:26:04;8.57;;;5.40;;
7495;SDS011;3789;47.064;15.482;2022-10-31T04:28:31;11.17;;;5.93;;
7495;SDS011;3789;47.064;15.482;2022-10-31T04:31:00;9.30;;;6.10;;
7495;SDS011;3789;47.064;15.482;2022-10-31T04:33:27;10.03;;;5.57;;
7495;SDS011;3789;47.064;15.482;2022-10-31T04:35:54;11.87;;;6.03;;
7495;SDS011;3789;47.064;15.482;2022-10-31T04:38:21;12.33;;;5.77;;
7495;SDS011;3789;47.064;15.482;2022-10-31T04:40:48;12.73;;;5.53;;
7495;SDS011;3789;47.064;15.482;2022-10-31T04:43:15;9.30;;;5.27;;
7495;SDS011;3789;47.064;15.482;2022-10-31T04:45:42;8.73;;;5.53;;
7495;SDS011;3789;47.064;15.482;2022-10-31T04:48:09;11.20;;;5.23;;
7495;SDS011;3789;47.064;15.482;2022-10-31T04:50:36;10.20;;;5.17;;
7495;SDS011;3789;47.064;15.482;2022-10-31T04:53:03;8.47;;;5.70;;
7495;SDS011;3789;47.064;15.482;2022-10-31T04:55:31;11.00;;;5.27;;
7495;SDS011;3789;47.064;15.482;2022-10-31T04:57:58;14.13;;;5.97;;
7495;SDS011;3789;47.064;15.482;2022-10-31T05:00:26;11.37;;;5.53;;
7495;SDS011;3789;47.064;15.482;2022-10-31T05:02:54;15.17;;;5.50;;
7495;SDS011;3789;47.064;15.482;2022-10-31T05:05:27;10.93;;;5.60;;
7495;SDS011;3789;47.064;15.482;2022-10-31T05:07:56;13.60;;;6.17;;
7495;SDS011;3789;47.064;15.482;2022-10-31T05:10:24;8.33;;;4.90;;
7495;SDS011;3789;47.064;15.482;2022-10-31T05:12:56;12.37;;;5.50;;
7495;SDS011;3789;47.064;15.482;2022-10-31T05:15:46;9.70;;;5.23;;
7495;SDS011;3789;47.064;15.482;2022-10-31T05:18:13;8.90;;;5.23;;
7495;SDS011;3789;47.064;15.482;2022-10-31T05:20:40;10.30;;;5.60;;
7495;SDS011;3789;47.064;15.482;2022-10-31T05:23:07;12.87;;;4.97;;
7495;SDS011;3789;47.064;15.482;2022-10-31T05:25:34;10.63;;;5.30;;
7495;SDS011;3789;47.064;15.482;2022-10-31T05:28:01;9.77;;;5.30;;
7495;SDS011;3789;47.064;15.482;2022-10-31T05:30:30;8.93;;;5.50;;
7495;SDS011;3789;47.064;15.482;2022-10-31T05:32:58;9.87;;;5.33;;
7495;SDS011;3789;47.064;15.482;2022-10-31T05:35:27;9.83;;;5.83;;
7495;SDS011;3789;47.064;15.482;2022-10-31T05:37:56;7.57;;;4.90;;
7495;SDS011;3789;47.064;15.482;2022-10-31T05:40:24;8.70;;;4.60;;
7495;SDS011;3789;47.064;15.482;2022-10-31T05:42:53;11.10;;;4.97;;
7495;SDS011;3789;47.064;15.482;2022-10-31T05:45:21;10.07;;;5.10;;
7495;SDS011;3789;47.064;15.482;2022-10-31T05:47:52;8.67;;;5.30;;
7495;SDS011;3789;47.064;15.482;2022-10-31T05:50:21;9.27;;;4.93;;
7495;SDS011;3789;47.064;15.482;2022-10-31T05:53:00;7.13;;;4.90;;
7495;SDS011;3789;47.064;15.482;2022-10-31T05:55:29;11.60;;;5.07;;
7495;SDS011;3789;47.064;15.482;2022-10-31T05:57:57;7.53;;;4.83;;
7495;SDS011;3789;47.064;15.482;2022-10-31T06:00:25;9.90;;;5.23;;
7495;SDS011;3789;47.064;15.482;2022-10-31T06:02:57;8.00;;;5.13;;
7495;SDS011;3789;47.064;15.482;2022-10-31T06:05:26;7.47;;;4.53;;
7495;SDS011;3789;47.064;15.482;2022-10-31T06:07:54;8.37;;;5.00;;
7495;SDS011;3789;47.064;15.482;2022-10-31T06:10:21;11.23;;;4.70;;
7495;SDS011;3789;47.064;15.482;2022-10-31T06:12:48;10.40;;;5.40;;
7495;SDS011;3789;47.064;15.482;2022-10-31T06:15:16;11.83;;;5.47;;
7495;SDS011;3789;47.064;15.482;2022-10-31T06:18:03;11.87;;;5.30;;
7495;SDS011;3789;47.064;15.482;2022-10-31T06:20:31;10.47;;;5.40;;
7495;SDS011;3789;47.064;15.482;2022-10-31T06:22:59;8.43;;;4.67;;
7495;SDS011;3789;47.064;15.482;2022-10-31T06:25:27;6.30;;;4.23;;
7495;SDS011;3789;47.064;15.482;2022-10-31T06:27:54;8.97;;;5.07;;
7495;SDS011;3789;47.064;15.482;2022-10-31T06:30:22;9.17;;;4.50;;
7495;SDS011;3789;47.064;15.482;2022-10-31T06:32:49;8.97;;;4.60;;
7495;SDS011;3789;47.064;15.482;2022-10-31T06:35:47;6.67;;;4.40;;
7495;SDS011;3789;47.064;15.482;2022-10-31T06:38:14;8.77;;;5.07;;
7495;SDS011;3789;47.064;15.482;2022-10-31T06:40:41;9.17;;;5.20;;
7495;SDS011;3789;47.064;15.482;2022-10-31T06:43:08;10.70;;;4.43;;
7495;SDS011;3789;47.064;15.482;2022-10-31T06:45:37;11.63;;;5.20;;
7495;SDS011;3789;47.064;15.482;2022-10-31T06:48:04;9.67;;;5.10;;
7495;SDS011;3789;47.064;15.482;2022-10-31T06:50:47;7.97;;;4.97;;
7495;SDS011;3789;47.064;15.482;2022-10-31T06:53:14;7.47;;;4.53;;
7495;SDS011;3789;47.064;15.482;2022-10-31T06:55:42;9.43;;;4.37;;
7495;SDS011;3789;47.064;15.482;2022-10-31T06:58:09;9.63;;;4.77;;
7495;SDS011;3789;47.064;15.482;2022-10-31T07:00:37;10.87;;;5.00;;
7495;SDS011;3789;47.064;15.482;2022-10-31T07:03:11;9.90;;;5.17;;
7495;SDS011;3789;47.064;15.482;2022-10-31T07:05:39;9.87;;;5.43;;
7495;SDS011;3789;47.064;15.482;2022-10-31T07:08:07;10.95;;;5.45;;
7495;SDS011;3789;47.064;15.482;2022-10-31T07:10:38;10.48;;;5.60;;
7495;SDS011;3789;47.064;15.482;2022-10-31T07:13:08;9.85;;;5.47;;
7495;SDS011;3789;47.064;15.482;2022-10-31T07:15:41;9.45;;;4.82;;
7495;SDS011;3789;47.064;15.482;2022-10-31T07:18:09;12.25;;;6.72;;
7495;SDS011;3789;47.064;15.482;2022-10-31T07:20:37;6.32;;;4.05;;
7495;SDS011;3789;47.064;15.482;2022-10-31T07:23:04;11.77;;;5.05;;
7495;SDS011;3789;47.064;15.482;2022-10-31T07:25:32;8.43;;;4.13;;
7495;SDS011;3789;47.064;15.482;2022-10-31T07:28:02;11.65;;;4.35;;
7495;SDS011;3789;47.064;15.482;2022-10-31T07:30:29;8.48;;;4.55;;
7495;SDS011;3789;47.064;15.482;2022-10-31T07:32:57;6.68;;;4.03;;
7495;SDS011;3789;47.064;15.482;2022-10-31T07:35:25;10.10;;;5.55;;
7495;SDS011;3789;47.064;15.482;2022-10-31T07:37:53;9.88;;;5.30;;
7495;SDS011;3789;47.064;15.482;2022-10-31T07:40:21;8.07;;;4.78;;
7495;SDS011;3789;47.064;15.482;2022-10-31T07:42:51;10.40;;;5.47;;
7495;SDS011;3789;47.064;15.482;2022-10-31T07:45:19;9.57;;;5.03;;
7495;SDS011;3789;47.064;15.482;2022-10-31T07:47:51;11.93;;;5.15;;
7495;SDS011;3789;47.064;15.482;2022-10-31T07:50:20;7.60;;;4.30;;
7495;SDS011;3789;47.064;15.482;2022-10-31T07:52:59;10.80;;;4.60;;
7495;SDS011;3789;47.064;15.482;2022-10-31T07:55:38;10.10;;;4.50;;
7495;SDS011;3789;47.064;15.482;2022-10-31T07:58:07;11.52;;;4.65;;
7495;SDS011;3789;47.064;15.482;2022-10-31T08:00:39;10.98;;;4.30;;
7495;SDS011;3789;47.064;15.482;2022-10-31T08:03:10;9.48;;;4.65;;
7495;SDS011;3789;47.064;15.482;2022-10-31T08:05:44;11.90;;;4.65;;
7495;SDS011;3789;47.064;15.482;2022-10-31T08:08:20;11.93;;;4.85;;
7495;SDS011;3789;47.064;15.482;2022-10-31T08:10:51;10.40;;;4.95;;
7495;SDS011;3789;47.064;15.482;2022-10-31T08:13:22;9.93;;;4.65;;
7495;SDS011;3789;47.064;15.482;2022-10-31T08:15:59;9.05;;;4.82;;
7495;SDS011;3789;47.064;15.482;2022-10-31T08:18:31;9.93;;;4.55;;
7495;SDS011;3789;47.064;15.482;2022-10-31T08:21:02;7.60;;;4.65;;
7495;SDS011;3789;47.064;15.482;2022-10-31T08:23:30;8.02;;;4.75;;
7495;SDS011;3789;47.064;15.482;2022-10-31T08:26:02;8.77;;;4.97;;
7495;SDS011;3789;47.064;15.482;2022-10-31T08:28:29;9.77;;;5.35;;
7495;SDS011;3789;47.064;15.482;2022-10-31T08:31:01;9.00;;;5.35;;
7495;SDS011;3789;47.064;15.482;2022-10-31T08:33:29;6.82;;;4.95;;
7495;SDS011;3789;47.064;15.482;2022-10-31T08:35:57;6.72;;;4.95;;
7495;SDS011;3789;47.064;15.482;2022-10-31T08:38:26;10.77;;;5.32;;
7495;SDS011;3789;47.064;15.482;2022-10-31T08:40:56;8.23;;;5.25;;
7495;SDS011;3789;47.064;15.482;2022-10-31T08:43:26;10.48;;;6.10;;
7495;SDS011;3789;47.064;15.482;2022-10-31T08:45:58;10.10;;;7.10;;
7495;SDS011;3789;47.064;15.482;2022-10-31T08:48:28;8.60;;;6.78;;
7495;SDS011;3789;47.064;15.482;2022-10-31T08:50:56;10.85;;;6.82;;
7495;SDS011;3789;47.064;15.482;2022-10-31T08:53:28;10.60;;;6.05;;
7495;SDS011;3789;47.064;15.482;2022-10-31T08:55:57;9.18;;;6.22;;
7495;SDS011;3789;47.064;15.482;2022-10-31T08:58:27;8.73;;;4.97;;
7495;SDS011;3789;47.064;15.482;2022-10-31T09:00:55;11.10;;;6.13;;
7495;SDS011;3789;47.064;15.482;2022-10-31T09:03:26;6.53;;;5.70;;
7495;SDS011;3789;47.064;15.482;2022-10-31T09:06:02;10.13;;;6.20;;
7495;SDS011;3789;47.064;15.482;2022-10-31T09:08:31;12.95;;;6.57;;
7495;SDS011;3789;47.064;15.482;2022-10-31T09:10:59;8.80;;;5.57;;
7495;SDS011;3789;47.064;15.482;2022-10-31T09:13:38;12.20;;;5.97;;
7495;SDS011;3789;47.064;15.482;2022-10-31T09:16:08;10.52;;;6.40;;
7495;SDS011;3789;47.064;15.482;2022-10-31T09:18:36;8.00;;;6.00;;
7495;SDS011;3789;47.064;15.482;2022-10-31T09:21:07;7.43;;;5.43;;
7495;SDS011;3789;47.064;15.482;2022-10-31T09:23:35;8.73;;;5.50;;
7495;SDS011;3789;47.064;15.482;2022-10-31T09:26:17;8.15;;;6.05;;
7495;SDS011;3789;47.064;15.482;2022-10-31T09:28:51;10.50;;;6.45;;
7495;SDS011;3789;47.064;15.482;2022-10-31T09:31:21;9.80;;;5.78;;
7495;SDS011;3789;47.064;15.482;2022-10-31T09:33:52;12.82;;;5.93;;
7495;SDS011;3789;47.064;15.482;2022-10-31T09:36:23;8.93;;;5.95;;
7495;SDS011;3789;47.064;15.482;2022-10-31T09:39:17;6.85;;;4.18;;
7495;SDS011;3789;47.064;15.482;2022-10-31T09:42:01;8.30;;;6.18;;
7495;SDS011;3789;47.064;15.482;2022-10-31T09:45:15;12.88;;;5.95;;
7495;SDS011;3789;47.064;15.482;2022-10-31T09:51:34;8.13;;;4.20;;
7495;SDS011;3789;47.064;15.482;2022-10-31T09:54:16;9.48;;;5.80;;
7495;SDS011;3789;47.064;15.482;2022-10-31T09:56:47;9.25;;;5.43;;
7495;SDS011;3789;47.064;15.482;2022-10-31T09:59:20;8.35;;;5.32;;
7495;SDS011;3789;47.064;15.482;2022-10-31T10:05:09;8.90;;;5.38;;
7495;SDS011;3789;47.064;15.482;2022-10-31T10:08:18;8.30;;;5.82;;
7495;SDS011;3789;47.064;15.482;2022-10-31T10:10:51;9.30;;;5.45;;
7495;SDS011;3789;47.064;15.482;2022-10-31T10:26:01;7.80;;;5.60;;
7495;SDS011;3789;47.064;15.482;2022-10-31T10:29:01;7.35;;;4.93;;
7495;SDS011;3789;47.064;15.482;2022-10-31T10:31:55;11.82;;;5.50;;
7495;SDS011;3789;47.064;15.482;2022-10-31T10:34:44;7.22;;;5.85;;
7495;SDS011;3789;47.064;15.482;2022-10-31T10:37:41;8.07;;;5.43;;
7495;SDS011;3789;47.064;15.482;2022-10-31T10:40:17;11.90;;;5.53;;
7495;SDS011;3789;47.064;15.482;2022-10-31T10:49:14;7.13;;;5.55;;
7495;SDS011;3789;47.064;15.482;2022-10-31T10:55:35;6.72;;;5.80;;
7495;SDS011;3789;47.064;15.482;2022-10-31T10:58:19;10.43;;;6.03;;
7495;SDS011;3789;47.064;15.482;2022-10-31T11:00:49;13.60;;;6.00;;
7495;SDS011;3789;47.064;15.482;2022-10-31T11:03:20;9.43;;;5.93;;
7495;SDS011;3789;47.064;15.482;2022-10-31T11:05:56;8.10;;;5.60;;
7495;SDS011;3789;47.064;15.482;2022-10-31T11:08:35;9.90;;;5.30;;
7495;SDS011;3789;47.064;15.482;2022-10-31T11:14:05;9.05;;;5.38;;
7495;SDS011;3789;47.064;15.482;2022-10-31T11:16:42;9.52;;;5.30;;
7495;SDS011;3789;47.064;15.482;2022-10-31T11:19:25;7.63;;;5.15;;
7495;SDS011;3789;47.064;15.482;2022-10-31T11:22:04;8.73;;;6.00;;
7495;SDS011;3789;47.064;15.482;2022-10-31T11:24:50;6.80;;;5.07;;
7495;SDS011;3789;47.064;15.482;2022-10-31T11:27:28;7.93;;;5.35;;
7495;SDS011;3789;47.064;15.482;2022-10-31T11:30:05;9.80;;;5.63;;
7495;SDS011;3789;47.064;15.482;2022-10-31T11:32:43;10.15;;;5.47;;
7495;SDS011;3789;47.064;15.482;2022-10-31T11:35:25;9.30;;;4.68;;
7495;SDS011;3789;47.064;15.482;2022-10-31T11:38:12;8.18;;;5.10;;
7495;SDS011;3789;47.064;15.482;2022-10-31T11:40:52;10.18;;;5.78;;
7495;SDS011;3789;47.064;15.482;2022-10-31T11:43:49;7.70;;;4.97;;
7495;SDS011;3789;47.064;15.482;2022-10-31T11:46:46;9.05;;;5.22;;
7495;SDS011;3789;47.064;15.482;2022-10-31T11:49:32;10.70;;;6.20;;
7495;SDS011;3789;47.064;15.482;2022-10-31T11:52:26;8.35;;;5.00;;
7495;SDS011;3789;47.064;15.482;2022-10-31T11:55:17;8.43;;;5.25;;
7495;SDS011;3789;47.064;15.482;2022-10-31T11:58:27;7.60;;;4.50;;
7495;SDS011;3789;47.064;15.482;2022-10-31T12:00:59;7.07;;;5.18;;
7495;SDS011;3789;47.064;15.482;2022-10-31T12:03:33;8.35;;;5.07;;
7495;SDS011;3789;47.064;15.482;2022-10-31T12:06:29;7.20;;;5.53;;
7495;SDS011;3789;47.064;15.482;2022-10-31T12:09:02;5.63;;;4.35;;
7495;SDS011;3789;47.064;15.482;2022-10-31T12:18:27;8.45;;;5.55;;
7495;SDS011;3789;47.064;15.482;2022-10-31T12:21:34;9.10;;;4.90;;
7495;SDS011;3789;47.064;15.482;2022-10-31T12:30:20;5.72;;;4.25;;
7495;SDS011;3789;47.064;15.482;2022-10-31T12:42:17;5.80;;;4.70;;
7495;SDS011;3789;47.064;15.482;2022-10-31T12:51:15;7.35;;;5.13;;
7495;SDS011;3789;47.064;15.482;2022-10-31T12:59:51;5.95;;;4.63;;
7495;SDS011;3789;47.064;15.482;2022-10-31T13:02:43;9.73;;;5.07;;
7495;SDS011;3789;47.064;15.482;2022-10-31T13:05:34;9.10;;;5.07;;
7495;SDS011;3789;47.064;15.482;2022-10-31T13:08:16;8.52;;;4.85;;
7495;SDS011;3789;47.064;15.482;2022-10-31T13:10:54;6.53;;;4.75;;
7495;SDS011;3789;47.064;15.482;2022-10-31T13:13:49;6.30;;;4.97;;
7495;SDS011;3789;47.064;15.482;2022-10-31T13:16:41;8.70;;;4.95;;
7495;SDS011;3789;47.064;15.482;2022-10-31T13:19:34;5.88;;;4.85;;
7495;SDS011;3789;47.064;15.482;2022-10-31T13:31:23;8.82;;;4.50;;
7495;SDS011;3789;47.064;15.482;2022-10-31T13:33:55;6.43;;;4.47;;
7495;SDS011;3789;47.064;15.482;2022-10-31T13:37:16;8.05;;;4.65;;
7495;SDS011;3789;47.064;15.482;2022-10-31T13:43:12;6.13;;;4.70;;
7495;SDS011;3789;47.064;15.482;2022-10-31T13:45:55;8.15;;;4.50;;
7495;SDS011;3789;47.064;15.482;2022-10-31T13:48:37;5.03;;;4.07;;
7495;SDS011;3789;47.064;15.482;2022-10-31T13:51:10;7.25;;;4.85;;
7495;SDS011;3789;47.064;15.482;2022-10-31T13:53:59;8.27;;;4.75;;
7495;SDS011;3789;47.064;15.482;2022-10-31T13:56:53;6.38;;;4.20;;
7495;SDS011;3789;47.064;15.482;2022-10-31T13:59:25;7.88;;;4.35;;
7495;SDS011;3789;47.064;15.482;2022-10-31T14:02:12;7.60;;;4.80;;
7495;SDS011;3789;47.064;15.482;2022-10-31T14:04:51;5.85;;;5.18;;
7495;SDS011;3789;47.064;15.482;2022-10-31T14:07:42;5.97;;;4.32;;
7495;SDS011;3789;47.064;15.482;2022-10-31T14:13:32;6.72;;;4.43;;
7495;SDS011;3789;47.064;15.482;2022-10-31T14:19:04;7.50;;;4.78;;
7495;SDS011;3789;47.064;15.482;2022-10-31T14:21:40;5.18;;;4.25;;
7495;SDS011;3789;47.064;15.482;2022-10-31T14:27:04;7.80;;;4.32;;
7495;SDS011;3789;47.064;15.482;2022-10-31T14:29:54;6.70;;;4.57;;
7495;SDS011;3789;47.064;15.482;2022-10-31T14:32:26;6.18;;;4.97;;
7495;SDS011;3789;47.064;15.482;2022-10-31T14:34:57;5.63;;;4.20;;
7495;SDS011;3789;47.064;15.482;2022-10-31T14:51:58;5.65;;;5.15;;
7495;SDS011;3789;47.064;15.482;2022-10-31T14:54:30;8.85;;;5.80;;
7495;SDS011;3789;47.064;15.482;2022-10-31T14:57:23;6.07;;;4.60;;
7495;SDS011;3789;47.064;15.482;2022-10-31T15:00:02;4.90;;;4.50;;
7495;SDS011;3789;47.064;15.482;2022-10-31T15:05:35;7.35;;;5.75;;
7495;SDS011;3789;47.064;15.482;2022-10-31T15:08:34;6.63;;;5.78;;
7495;SDS011;3789;47.064;15.482;2022-10-31T15:11:42;6.90;;;5.82;;
7495;SDS011;3789;47.064;15.482;2022-10-31T15:14:19;10.35;;;6.25;;
7495;SDS011;3789;47.064;15.482;2022-10-31T15:17:01;5.63;;;5.03;;
7495;SDS011;3789;47.064;15.482;2022-10-31T15:19:34;5.60;;;4.93;;
7495;SDS011;3789;47.064;15.482;2022-10-31T15:22:05;8.15;;;5.95;;
7495;SDS011;3789;47.064;15.482;2022-10-31T15:24:49;8.60;;;5.75;;
7495;SDS011;3789;47.064;15.482;2022-10-31T15:27:25;14.48;;;7.13;;
7495;SDS011;3789;47.064;15.482;2022-10-31T15:30:03;10.35;;;5.85;;
7495;SDS011;3789;47.064;15.482;2022-10-31T15:32:48;7.97;;;6.00;;
7495;SDS011;3789;47.064;15.482;2022-10-31T15:35:29;6.90;;;5.57;;
7495;SDS011;3789;47.064;15.482;2022-10-31T15:37:57;8.30;;;5.55;;
7495;SDS011;3789;47.064;15.482;2022-10-31T15:40:53;7.80;;;5.65;;
7495;SDS011;3789;47.064;15.482;2022-10-31T15:43:30;7.22;;;6.22;;
7495;SDS011;3789;47.064;15.482;2022-10-31T15:46:06;6.95;;;5.68;;
7495;SDS011;3789;47.064;15.482;2022-10-31T15:48:39;9.10;;;7.13;;
7495;SDS011;3789;47.064;15.482;2022-10-31T15:51:28;7.25;;;5.90;;
7495;SDS011;3789;47.064;15.482;2022-10-31T15:54:02;10.07;;;6.95;;
7495;SDS011;3789;47.064;15.482;2022-10-31T15:56:32;6.93;;;6.10;;
7495;SDS011;3789;47.064;15.482;2022-10-31T15:59:13;7.95;;;7.15;;
7495;SDS011;3789;47.064;15.482;2022-10-31T16:02:02;8.15;;;7.35;;
7495;SDS011;3789;47.064;15.482;2022-10-31T16:04:47;7.53;;;6.85;;
7495;SDS011;3789;47.064;15.482;2022-10-31T16:07:47;9.68;;;6.30;;
7495;SDS011;3789;47.064;15.482;2022-10-31T16:10:26;6.82;;;5.95;;
7495;SDS011;3789;47.064;15.482;2022-10-31T16:13:01;7.13;;;6.28;;
7495;SDS011;3789;47.064;15.482;2022-10-31T16:15:32;10.52;;;6.63;;
7495;SDS011;3789;47.064;15.482;2022-10-31T16:18:03;7.15;;;6.45;;
7495;SDS011;3789;47.064;15.482;2022-10-31T16:20:36;7.10;;;6.47;;
7495;SDS011;3789;47.064;15.482;2022-10-31T16:23:04;7.78;;;6.82;;
7495;SDS011;3789;47.064;15.482;2022-10-31T16:25:36;8.15;;;6.85;;
7495;SDS011;3789;47.064;15.482;2022-10-31T16:28:20;7.57;;;6.70;;
7495;SDS011;3789;47.064;15.482;2022-10-31T16:30:58;8.18;;;6.93;;
7495;SDS011;3789;47.064;15.482;2022-10-31T16:33:37;8.82;;;6.88;;
7495;SDS011;3789;47.064;15.482;2022-10-31T16:39:03;9.23;;;6.80;;
7495;SDS011;3789;47.064;15.482;2022-10-31T16:41:31;7.68;;;6.70;;
7495;SDS011;3789;47.064;15.482;2022-10-31T16:44:21;8.73;;;7.90;;
7495;SDS011;3789;47.064;15.482;2022-10-31T16:47:13;12.93;;;11.63;;
7495;SDS011;3789;47.064;15.482;2022-10-31T16:49:51;13.48;;;11.80;;
7495;SDS011;3789;47.064;15.482;2022-10-31T16:52:19;9.75;;;8.85;;
7495;SDS011;3789;47.064;15.482;2022-10-31T16:54:50;10.45;;;9.45;;
7495;SDS011;3789;47.064;15.482;2022-10-31T16:57:22;12.93;;;8.82;;
7495;SDS011;3789;47.064;15.482;2022-10-31T16:59:55;8.57;;;7.65;;
7495;SDS011;3789;47.064;15.482;2022-10-31T17:02:33;9.13;;;7.85;;
7495;SDS011;3789;47.064;15.482;2022-10-31T17:05:04;8.13;;;6.72;;
7495;SDS011;3789;47.064;15.482;2022-10-31T17:07:31;8.75;;;6.97;;
7495;SDS011;3789;47.064;15.482;2022-10-31T17:10:02;9.98;;;7.45;;
7495;SDS011;3789;47.064;15.482;2022-10-31T17:12:32;8.77;;;7.40;;
7495;SDS011;3789;47.064;15.482;2022-10-31T17:15:00;8.07;;;7.10;;
7495;SDS011;3789;47.064;15.482;2022-10-31T17:17:34;9.73;;;7.13;;
7495;SDS011;3789;47.064;15.482;2022-10-31T17:20:16;8.87;;;7.97;;
7495;SDS011;3789;47.064;15.482;2022-10-31T17:22:58;9.13;;;7.53;;
7495;SDS011;3789;47.064;15.482;2022-10-31T17:25:30;11.57;;;7.93;;
7495;SDS011;3789;47.064;15.482;2022-10-31T17:28:02;8.43;;;7.63;;
7495;SDS011;3789;47.064;15.482;2022-10-31T17:30:33;9.80;;;7.13;;
7495;SDS011;3789;47.064;15.482;2022-10-31T17:33:04;9.60;;;8.03;;
7495;SDS011;3789;47.064;15.482;2022-10-31T17:35:32;8.53;;;7.63;;
7495;SDS011;3789;47.064;15.482;2022-10-31T17:38:01;9.13;;;8.17;;
7495;SDS011;3789;47.064;15.482;2022-10-31T17:40:31;9.10;;;8.20;;
7495;SDS011;3789;47.064;15.482;2022-10-31T17:43:00;8.47;;;7.67;;
7495;SDS011;3789;47.064;15.482;2022-10-31T17:45:31;9.00;;;7.13;;
7495;SDS011;3789;47.064;15.482;2022-10-31T17:48:00;8.80;;;7.90;;
7495;SDS011;3789;47.064;15.482;2022-10-31T17:50:28;10.97;;;7.90;;
7495;SDS011;3789;47.064;15.482;2022-10-31T17:52:57;7.90;;;7.17;;
7495;SDS011;3789;47.064;15.482;2022-10-31T17:55:28;9.37;;;8.20;;
7495;SDS011;3789;47.064;15.482;2022-10-31T17:58:07;9.33;;;7.83;;
7495;SDS011;3789;47.064;15.482;2022-10-31T18:00:40;9.43;;;8.27;;
7495;SDS011;3789;47.064;15.482;2022-10-31T18:03:17;13.47;;;11.33;;